Details From KGJT - WALKER FLD
To KLVS - LAS VEGAS MUNI
Flight Number -
Tags generated
Created
Modified
Stats Distance 275 nm / 510 km
Max Altitude 27,600 ft / 8,412 m
Waypoints 4
Social Downloads 0
Likes 0
Share VATSIM

Download

Looking for another format? Having issues loading an existing format? Contact us
Advertisement - Login to hide

Notes

Basic altitude profile: - Ascent Rate: 2500ft/min - Ascent Speed: 250kts - Cruise Altitude: 35000ft - Cruise Speed: 420kts - Descent Rate: 1500ft/min - Descent Speed: 250kts

Route

KGJT HBU J206 ALS KLVS

ID Type Via Altitude Latitude Longitude Leg Dist Tot Dist Heading (true) Name
O KGJT APT - 0 ft / 0 m 39.12048˚ -108.52561˚ - 0 nm - WALKER FLD
HBU DME - 27,600 ft / 8,412 m 38.45215˚ -107.03979˚ 80 nm 80 nm 120° / 120° BLUE MESA VOR-DME
ALS VOR J206 (AWY-HI) 21,800 ft / 6,645 m 37.34917˚ -105.81553˚ 88 nm 168 nm 138° / 139° ALAMOSA VORTAC
O KLVS APT - 0 ft / 0 m 35.65415˚ -105.14244˚ 106 nm 275 nm 162° / 162° LAS VEGAS MUNI

Altitude Profile

Advertisement - Login to hide

Weather


0- 5 10 15 20 25 30 35+ Temperature / ° C

Clouds and Precipitation
Forecast for 2018-05-24 12:00 UTC. Updated 3 hours ago

Ground ~20,000 ft ~40,000 ft Winds

KGJT

Details ICAO KGJT (GJT)
Name WALKER FLD
Region United States
Timezone America/Denver (UTC-6.0)
Stats Elevation 4,858 ft / 1,481 m (AMSL)
Location 39.120479° -108.525609°
Runways 2
Magnetic Variation 9.787° E

METAR

KGJT 241353Z 12010KT 10SM CLR 15/01 A3016 RMK AO2 SLP151 T01500011

Decode

TAF

KGJT 241124Z 2412/2512 12010KT P6SM SKC FM241800 29010G18KT P6SM FEW140 FEW250 FM250300 02006KT P6SM SKC FM250600 10006KT P6SM SKC

Decode

Departure Runways

ID Width Length Bearing (true) Bearing (mag) Surface Threshold Offset Overrun Length
04 75 ft / 23 m 5,495 ft / 1,675 m 54.33° 44.54° Asphalt 0 ft / 0 m 0 ft / 0 m
11 151 ft / 46 m 10,490 ft / 3,197 m 125.28° 115.49° Asphalt 0 ft / 0 m 98 ft / 30 m
22 75 ft / 23 m 5,495 ft / 1,675 m 234.34° 224.55° Asphalt 0 ft / 0 m 0 ft / 0 m
29 151 ft / 46 m 10,490 ft / 3,197 m 305.30° 295.51° Asphalt 0 ft / 0 m 98 ft / 30 m

KLVS

Details ICAO KLVS (LVS)
Name LAS VEGAS MUNI
Region United States
Timezone America/Denver (UTC-6.0)
Stats Elevation 6,877 ft / 2,096 m (AMSL)
Location 35.654149° -105.142439°
Runways 2
Magnetic Variation 7.886° E

METAR

KLVS 241353Z AUTO 26005KT 10SM CLR 12/09 A3028 RMK AO2 SLP172 T01170089

Decode

TAF

TAF KLVS 241120Z 2412/2512 20006KT P6SM SCT100 FM241800 21013G22KT P6SM SKC FM250200 21008KT P6SM SKC FM251100 04006KT P6SM SKC

Decode

Destination Runways

ID Width Length Bearing (true) Bearing (mag) Surface Threshold Offset Overrun Length
02 75 ft / 23 m 5,007 ft / 1,526 m 34.79° 26.90° Asphalt 0 ft / 0 m 0 ft / 0 m
14 75 ft / 23 m 8,208 ft / 2,502 m 151.74° 143.85° Asphalt 0 ft / 0 m 0 ft / 0 m
20 75 ft / 23 m 5,007 ft / 1,526 m 214.79° 206.90° Asphalt 0 ft / 0 m 0 ft / 0 m
32 75 ft / 23 m 8,208 ft / 2,502 m 331.75° 323.86° Asphalt 0 ft / 0 m 0 ft / 0 m